sensor_id;sensor_type;location;lat;lon;timestamp;temperature;humidity
22212;DHT22;11275;52.488;13.462;2023-07-09T00:01:51;22.80;76.00
22212;DHT22;11275;52.488;13.462;2023-07-09T00:04:17;22.80;76.50
22212;DHT22;11275;52.488;13.462;2023-07-09T00:06:44;22.70;76.60
22212;DHT22;11275;52.488;13.462;2023-07-09T00:09:14;22.70;77.00
22212;DHT22;11275;52.488;13.462;2023-07-09T00:11:42;22.60;77.30
22212;DHT22;11275;52.488;13.462;2023-07-09T00:14:12;22.60;77.40
22212;DHT22;11275;52.488;13.462;2023-07-09T00:16:39;22.60;77.30
22212;DHT22;11275;52.488;13.462;2023-07-09T00:19:12;22.60;77.30
22212;DHT22;11275;52.488;13.462;2023-07-09T00:21:39;22.70;77.50
22212;DHT22;11275;52.488;13.462;2023-07-09T00:24:06;22.70;77.60
22212;DHT22;11275;52.488;13.462;2023-07-09T00:26:32;22.60;77.60
22212;DHT22;11275;52.488;13.462;2023-07-09T00:28:59;22.60;77.70
22212;DHT22;11275;52.488;13.462;2023-07-09T00:31:26;22.60;77.90
22212;DHT22;11275;52.488;13.462;2023-07-09T00:33:52;22.50;78.10
22212;DHT22;11275;52.488;13.462;2023-07-09T00:36:30;22.50;77.90
22212;DHT22;11275;52.488;13.462;2023-07-09T00:38:59;22.50;78.10
22212;DHT22;11275;52.488;13.462;2023-07-09T00:41:32;22.40;78.40
22212;DHT22;11275;52.488;13.462;2023-07-09T00:49:26;22.30;78.50
22212;DHT22;11275;52.488;13.462;2023-07-09T00:51:52;22.30;78.60
22212;DHT22;11275;52.488;13.462;2023-07-09T00:54:35;22.30;78.80
22212;DHT22;11275;52.488;13.462;2023-07-09T00:57:10;22.40;78.70
22212;DHT22;11275;52.488;13.462;2023-07-09T00:59:37;22.40;78.90
22212;DHT22;11275;52.488;13.462;2023-07-09T01:02:06;22.30;79.00
22212;DHT22;11275;52.488;13.462;2023-07-09T01:04:32;22.30;79.20
22212;DHT22;11275;52.488;13.462;2023-07-09T01:06:58;22.30;79.30
22212;DHT22;11275;52.488;13.462;2023-07-09T01:09:25;22.30;79.40
22212;DHT22;11275;52.488;13.462;2023-07-09T01:11:51;22.30;79.30
22212;DHT22;11275;52.488;13.462;2023-07-09T01:14:21;22.30;79.50
22212;DHT22;11275;52.488;13.462;2023-07-09T01:16:53;22.20;79.60
22212;DHT22;11275;52.488;13.462;2023-07-09T01:19:23;22.20;79.50
22212;DHT22;11275;52.488;13.462;2023-07-09T01:21:53;22.20;79.50
22212;DHT22;11275;52.488;13.462;2023-07-09T01:24:54;22.20;79.50
22212;DHT22;11275;52.488;13.462;2023-07-09T01:27:26;22.10;79.90
22212;DHT22;11275;52.488;13.462;2023-07-09T01:29:53;22.10;80.10
22212;DHT22;11275;52.488;13.462;2023-07-09T01:32:21;22.00;80.20
22212;DHT22;11275;52.488;13.462;2023-07-09T01:34:50;22.00;80.40
22212;DHT22;11275;52.488;13.462;2023-07-09T01:37:23;22.00;80.60
22212;DHT22;11275;52.488;13.462;2023-07-09T01:39:49;22.00;81.00
22212;DHT22;11275;52.488;13.462;2023-07-09T01:42:17;22.00;80.70
22212;DHT22;11275;52.488;13.462;2023-07-09T01:44:44;21.90;80.60
22212;DHT22;11275;52.488;13.462;2023-07-09T01:47:11;21.90;80.80
22212;DHT22;11275;52.488;13.462;2023-07-09T01:49:37;21.80;80.90
22212;DHT22;11275;52.488;13.462;2023-07-09T01:52:05;21.80;81.20
22212;DHT22;11275;52.488;13.462;2023-07-09T01:54:33;21.70;81.10
22212;DHT22;11275;52.488;13.462;2023-07-09T01:57:17;21.70;81.20
22212;DHT22;11275;52.488;13.462;2023-07-09T01:59:45;21.70;81.90
22212;DHT22;11275;52.488;13.462;2023-07-09T02:02:11;21.60;81.70
22212;DHT22;11275;52.488;13.462;2023-07-09T02:04:45;21.60;82.10
22212;DHT22;11275;52.488;13.462;2023-07-09T02:07:11;21.40;82.60
22212;DHT22;11275;52.488;13.462;2023-07-09T02:09:37;21.40;82.90
22212;DHT22;11275;52.488;13.462;2023-07-09T02:12:03;21.40;83.30
22212;DHT22;11275;52.488;13.462;2023-07-09T02:14:29;21.40;83.70
22212;DHT22;11275;52.488;13.462;2023-07-09T02:16:54;21.30;83.80
22212;DHT22;11275;52.488;13.462;2023-07-09T02:19:20;21.30;84.20
22212;DHT22;11275;52.488;13.462;2023-07-09T02:21:46;21.30;84.20
22212;DHT22;11275;52.488;13.462;2023-07-09T02:24:11;21.30;84.30
22212;DHT22;11275;52.488;13.462;2023-07-09T02:26:37;21.20;84.50
22212;DHT22;11275;52.488;13.462;2023-07-09T02:29:02;21.20;84.40
22212;DHT22;11275;52.488;13.462;2023-07-09T02:31:28;21.30;84.40
22212;DHT22;11275;52.488;13.462;2023-07-09T02:33:56;21.30;84.40
22212;DHT22;11275;52.488;13.462;2023-07-09T02:36:23;21.20;84.70
22212;DHT22;11275;52.488;13.462;2023-07-09T02:38:49;21.20;85.00
22212;DHT22;11275;52.488;13.462;2023-07-09T02:41:15;21.10;85.30
22212;DHT22;11275;52.488;13.462;2023-07-09T02:43:41;21.10;85.40
22212;DHT22;11275;52.488;13.462;2023-07-09T02:46:06;21.10;85.60
22212;DHT22;11275;52.488;13.462;2023-07-09T02:48:32;21.10;85.90
22212;DHT22;11275;52.488;13.462;2023-07-09T02:50:57;21.10;85.90
22212;DHT22;11275;52.488;13.462;2023-07-09T02:53:23;21.00;86.30
22212;DHT22;11275;52.488;13.462;2023-07-09T02:55:49;20.90;87.10
22212;DHT22;11275;52.488;13.462;2023-07-09T02:58:14;20.90;87.60
22212;DHT22;11275;52.488;13.462;2023-07-09T03:00:40;20.90;87.70
22212;DHT22;11275;52.488;13.462;2023-07-09T03:03:05;20.90;87.80
22212;DHT22;11275;52.488;13.462;2023-07-09T03:05:31;20.80;87.90
22212;DHT22;11275;52.488;13.462;2023-07-09T03:07:58;20.80;88.20
22212;DHT22;11275;52.488;13.462;2023-07-09T03:10:23;20.60;88.80
22212;DHT22;11275;52.488;13.462;2023-07-09T03:12:49;20.60;88.70
22212;DHT22;11275;52.488;13.462;2023-07-09T03:15:15;20.70;88.80
22212;DHT22;11275;52.488;13.462;2023-07-09T03:17:40;20.60;88.80
22212;DHT22;11275;52.488;13.462;2023-07-09T03:20:06;20.60;89.20
22212;DHT22;11275;52.488;13.462;2023-07-09T03:22:33;20.60;89.60
22212;DHT22;11275;52.488;13.462;2023-07-09T03:24:59;20.60;89.60
22212;DHT22;11275;52.488;13.462;2023-07-09T03:27:24;20.60;89.90
22212;DHT22;11275;52.488;13.462;2023-07-09T03:29:50;20.60;89.70
22212;DHT22;11275;52.488;13.462;2023-07-09T03:32:15;20.60;89.70
22212;DHT22;11275;52.488;13.462;2023-07-09T03:34:41;20.60;90.10
22212;DHT22;11275;52.488;13.462;2023-07-09T03:37:07;20.60;90.20
22212;DHT22;11275;52.488;13.462;2023-07-09T03:39:32;20.60;90.10
22212;DHT22;11275;52.488;13.462;2023-07-09T03:41:58;20.60;90.20
22212;DHT22;11275;52.488;13.462;2023-07-09T03:44:25;20.60;90.20
22212;DHT22;11275;52.488;13.462;2023-07-09T03:46:50;20.50;90.60
22212;DHT22;11275;52.488;13.462;2023-07-09T03:49:16;20.40;90.80
22212;DHT22;11275;52.488;13.462;2023-07-09T03:51:42;20.40;91.10
22212;DHT22;11275;52.488;13.462;2023-07-09T03:54:07;20.40;91.00
22212;DHT22;11275;52.488;13.462;2023-07-09T03:56:33;20.40;91.10
22212;DHT22;11275;52.488;13.462;2023-07-09T03:58:58;20.40;91.20
22212;DHT22;11275;52.488;13.462;2023-07-09T04:01:24;20.40;91.20
22212;DHT22;11275;52.488;13.462;2023-07-09T04:03:50;20.40;91.20
22212;DHT22;11275;52.488;13.462;2023-07-09T04:06:15;20.40;91.40
22212;DHT22;11275;52.488;13.462;2023-07-09T04:08:41;20.30;91.70
22212;DHT22;11275;52.488;13.462;2023-07-09T04:11:06;20.30;92.00
22212;DHT22;11275;52.488;13.462;2023-07-09T04:13:32;20.20;92.00
22212;DHT22;11275;52.488;13.462;2023-07-09T04:15:58;20.20;92.10
22212;DHT22;11275;52.488;13.462;2023-07-09T04:18:24;20.30;92.30
22212;DHT22;11275;52.488;13.462;2023-07-09T04:20:50;20.30;92.30
22212;DHT22;11275;52.488;13.462;2023-07-09T04:23:17;20.40;92.30
22212;DHT22;11275;52.488;13.462;2023-07-09T04:25:42;20.40;92.20
22212;DHT22;11275;52.488;13.462;2023-07-09T04:28:08;20.50;92.20
22212;DHT22;11275;52.488;13.462;2023-07-09T04:30:33;20.50;92.20
22212;DHT22;11275;52.488;13.462;2023-07-09T04:32:59;20.50;92.40
22212;DHT22;11275;52.488;13.462;2023-07-09T04:35:25;20.60;92.40
22212;DHT22;11275;52.488;13.462;2023-07-09T04:37:50;20.60;92.50
22212;DHT22;11275;52.488;13.462;2023-07-09T04:40:18;20.70;92.40
22212;DHT22;11275;52.488;13.462;2023-07-09T04:42:44;20.70;92.40
22212;DHT22;11275;52.488;13.462;2023-07-09T04:45:11;20.70;92.50
22212;DHT22;11275;52.488;13.462;2023-07-09T04:47:37;20.80;92.50
22212;DHT22;11275;52.488;13.462;2023-07-09T04:50:05;20.80;92.40
22212;DHT22;11275;52.488;13.462;2023-07-09T04:52:31;20.80;92.30
22212;DHT22;11275;52.488;13.462;2023-07-09T04:54:56;20.80;92.40
22212;DHT22;11275;52.488;13.462;2023-07-09T04:57:22;20.90;92.20
22212;DHT22;11275;52.488;13.462;2023-07-09T04:59:48;20.90;92.40
22212;DHT22;11275;52.488;13.462;2023-07-09T05:02:17;20.90;92.40
22212;DHT22;11275;52.488;13.462;2023-07-09T05:04:43;20.90;92.40
22212;DHT22;11275;52.488;13.462;2023-07-09T05:07:09;21.00;92.10
22212;DHT22;11275;52.488;13.462;2023-07-09T05:09:34;21.10;91.90
22212;DHT22;11275;52.488;13.462;2023-07-09T05:12:01;21.10;91.80
22212;DHT22;11275;52.488;13.462;2023-07-09T05:14:29;21.20;91.60
22212;DHT22;11275;52.488;13.462;2023-07-09T05:16:55;21.30;91.40
22212;DHT22;11275;52.488;13.462;2023-07-09T05:19:20;21.30;91.20
22212;DHT22;11275;52.488;13.462;2023-07-09T05:21:46;21.30;91.00
22212;DHT22;11275;52.488;13.462;2023-07-09T05:24:11;21.40;90.90
22212;DHT22;11275;52.488;13.462;2023-07-09T05:26:37;21.40;90.60
22212;DHT22;11275;52.488;13.462;2023-07-09T05:29:04;21.40;90.50
22212;DHT22;11275;52.488;13.462;2023-07-09T05:31:32;21.50;90.40
22212;DHT22;11275;52.488;13.462;2023-07-09T05:33:59;21.50;90.30
22212;DHT22;11275;52.488;13.462;2023-07-09T05:36:26;21.60;90.10
22212;DHT22;11275;52.488;13.462;2023-07-09T05:38:52;21.60;90.10
22212;DHT22;11275;52.488;13.462;2023-07-09T05:41:17;21.60;90.10
22212;DHT22;11275;52.488;13.462;2023-07-09T05:43:44;21.70;90.30
22212;DHT22;11275;52.488;13.462;2023-07-09T05:46:10;21.70;90.10
22212;DHT22;11275;52.488;13.462;2023-07-09T05:48:36;21.80;90.10
22212;DHT22;11275;52.488;13.462;2023-07-09T05:51:02;21.80;90.30
22212;DHT22;11275;52.488;13.462;2023-07-09T05:53:27;21.80;90.20
22212;DHT22;11275;52.488;13.462;2023-07-09T05:55:54;21.80;90.20
22212;DHT22;11275;52.488;13.462;2023-07-09T05:58:20;21.90;90.10
22212;DHT22;11275;52.488;13.462;2023-07-09T06:00:50;21.90;90.10
22212;DHT22;11275;52.488;13.462;2023-07-09T06:03:19;21.90;90.20
22212;DHT22;11275;52.488;13.462;2023-07-09T06:05:45;22.00;90.30
22212;DHT22;11275;52.488;13.462;2023-07-09T06:08:10;22.10;90.20
22212;DHT22;11275;52.488;13.462;2023-07-09T06:10:38;22.20;89.50
22212;DHT22;11275;52.488;13.462;2023-07-09T06:13:09;22.10;88.80
22212;DHT22;11275;52.488;13.462;2023-07-09T06:15:34;22.20;88.90
22212;DHT22;11275;52.488;13.462;2023-07-09T06:18:00;22.30;88.90
22212;DHT22;11275;52.488;13.462;2023-07-09T06:20:25;22.30;88.90
22212;DHT22;11275;52.488;13.462;2023-07-09T06:22:51;22.40;89.30
22212;DHT22;11275;52.488;13.462;2023-07-09T06:25:17;22.40;89.50
22212;DHT22;11275;52.488;13.462;2023-07-09T06:27:42;22.50;89.30
22212;DHT22;11275;52.488;13.462;2023-07-09T06:30:08;22.50;88.80
22212;DHT22;11275;52.488;13.462;2023-07-09T06:32:34;22.50;88.90
22212;DHT22;11275;52.488;13.462;2023-07-09T06:34:59;22.60;89.30
22212;DHT22;11275;52.488;13.462;2023-07-09T06:37:25;22.60;88.90
22212;DHT22;11275;52.488;13.462;2023-07-09T06:39:50;22.60;88.60
22212;DHT22;11275;52.488;13.462;2023-07-09T06:42:16;22.70;88.80
22212;DHT22;11275;52.488;13.462;2023-07-09T06:44:41;22.70;88.70
22212;DHT22;11275;52.488;13.462;2023-07-09T06:47:07;22.80;88.90
22212;DHT22;11275;52.488;13.462;2023-07-09T06:49:33;22.80;88.70
22212;DHT22;11275;52.488;13.462;2023-07-09T06:51:58;22.90;89.20
22212;DHT22;11275;52.488;13.462;2023-07-09T06:54:25;22.90;89.60
22212;DHT22;11275;52.488;13.462;2023-07-09T06:56:50;23.00;89.00
22212;DHT22;11275;52.488;13.462;2023-07-09T06:59:16;23.00;89.20
22212;DHT22;11275;52.488;13.462;2023-07-09T07:01:41;23.10;88.90
22212;DHT22;11275;52.488;13.462;2023-07-09T07:04:08;23.10;88.90
22212;DHT22;11275;52.488;13.462;2023-07-09T07:06:33;23.20;89.40
22212;DHT22;11275;52.488;13.462;2023-07-09T07:09:00;23.20;90.00
22212;DHT22;11275;52.488;13.462;2023-07-09T07:11:25;23.20;88.90
22212;DHT22;11275;52.488;13.462;2023-07-09T07:13:55;23.30;88.60
22212;DHT22;11275;52.488;13.462;2023-07-09T07:16:21;23.40;88.60
22212;DHT22;11275;52.488;13.462;2023-07-09T07:18:46;23.40;87.80
22212;DHT22;11275;52.488;13.462;2023-07-09T07:21:12;23.40;87.80
22212;DHT22;11275;52.488;13.462;2023-07-09T07:23:37;23.50;88.50
22212;DHT22;11275;52.488;13.462;2023-07-09T07:26:03;23.60;87.70
22212;DHT22;11275;52.488;13.462;2023-07-09T07:28:30;23.70;88.00
22212;DHT22;11275;52.488;13.462;2023-07-09T07:31:03;23.70;88.20
22212;DHT22;11275;52.488;13.462;2023-07-09T07:33:29;23.70;87.50
22212;DHT22;11275;52.488;13.462;2023-07-09T07:35:55;23.80;87.40
22212;DHT22;11275;52.488;13.462;2023-07-09T07:38:21;23.90;87.10
22212;DHT22;11275;52.488;13.462;2023-07-09T07:40:46;23.90;87.60
22212;DHT22;11275;52.488;13.462;2023-07-09T07:43:12;24.00;87.00
22212;DHT22;11275;52.488;13.462;2023-07-09T07:45:41;24.10;86.20
22212;DHT22;11275;52.488;13.462;2023-07-09T07:48:07;24.10;86.70
22212;DHT22;11275;52.488;13.462;2023-07-09T07:50:33;24.10;86.40
22212;DHT22;11275;52.488;13.462;2023-07-09T07:52:59;24.20;86.40
22212;DHT22;11275;52.488;13.462;2023-07-09T07:55:24;24.20;86.30
22212;DHT22;11275;52.488;13.462;2023-07-09T07:57:50;24.30;86.30
22212;DHT22;11275;52.488;13.462;2023-07-09T08:00:16;24.30;86.10
22212;DHT22;11275;52.488;13.462;2023-07-09T08:02:42;24.40;86.10
22212;DHT22;11275;52.488;13.462;2023-07-09T08:05:07;24.40;86.60
22212;DHT22;11275;52.488;13.462;2023-07-09T08:07:33;24.50;86.30
22212;DHT22;11275;52.488;13.462;2023-07-09T08:09:59;24.50;85.90
22212;DHT22;11275;52.488;13.462;2023-07-09T08:12:24;24.60;85.50
22212;DHT22;11275;52.488;13.462;2023-07-09T08:14:50;24.70;85.30
22212;DHT22;11275;52.488;13.462;2023-07-09T08:17:15;24.70;85.60
22212;DHT22;11275;52.488;13.462;2023-07-09T08:19:49;24.70;85.10
22212;DHT22;11275;52.488;13.462;2023-07-09T08:22:16;24.80;85.00
22212;DHT22;11275;52.488;13.462;2023-07-09T08:24:42;24.90;84.90
22212;DHT22;11275;52.488;13.462;2023-07-09T08:27:08;24.90;84.90
22212;DHT22;11275;52.488;13.462;2023-07-09T08:29:34;25.00;85.10
22212;DHT22;11275;52.488;13.462;2023-07-09T08:32:00;25.10;84.30
22212;DHT22;11275;52.488;13.462;2023-07-09T08:34:26;25.20;84.40
22212;DHT22;11275;52.488;13.462;2023-07-09T08:36:51;25.30;84.60
22212;DHT22;11275;52.488;13.462;2023-07-09T08:39:17;25.30;84.30
22212;DHT22;11275;52.488;13.462;2023-07-09T08:47:18;25.40;83.80
22212;DHT22;11275;52.488;13.462;2023-07-09T08:50:02;25.40;82.90
22212;DHT22;11275;52.488;13.462;2023-07-09T08:52:38;25.40;83.00
22212;DHT22;11275;52.488;13.462;2023-07-09T08:55:09;25.50;83.10
22212;DHT22;11275;52.488;13.462;2023-07-09T08:57:45;25.60;83.20
22212;DHT22;11275;52.488;13.462;2023-07-09T09:00:21;25.60;82.60
22212;DHT22;11275;52.488;13.462;2023-07-09T09:02:51;25.70;82.10
22212;DHT22;11275;52.488;13.462;2023-07-09T09:05:20;25.80;81.70
22212;DHT22;11275;52.488;13.462;2023-07-09T09:07:57;25.80;80.20
22212;DHT22;11275;52.488;13.462;2023-07-09T09:10:57;25.80;79.70
22212;DHT22;11275;52.488;13.462;2023-07-09T09:13:25;25.90;79.70
22212;DHT22;11275;52.488;13.462;2023-07-09T09:15:54;25.90;80.10
22212;DHT22;11275;52.488;13.462;2023-07-09T09:18:27;26.00;80.40
22212;DHT22;11275;52.488;13.462;2023-07-09T09:21:03;26.00;80.20
22212;DHT22;11275;52.488;13.462;2023-07-09T09:23:46;26.10;79.30
22212;DHT22;11275;52.488;13.462;2023-07-09T09:26:18;26.10;78.60
22212;DHT22;11275;52.488;13.462;2023-07-09T09:28:46;26.30;77.90
22212;DHT22;11275;52.488;13.462;2023-07-09T09:31:13;26.30;77.60
22212;DHT22;11275;52.488;13.462;2023-07-09T09:33:45;26.40;77.70
22212;DHT22;11275;52.488;13.462;2023-07-09T09:36:18;26.40;73.70
22212;DHT22;11275;52.488;13.462;2023-07-09T09:38:44;26.50;76.70
22212;DHT22;11275;52.488;13.462;2023-07-09T09:41:15;26.50;76.20
22212;DHT22;11275;52.488;13.462;2023-07-09T09:43:44;26.60;76.00
22212;DHT22;11275;52.488;13.462;2023-07-09T09:46:17;26.60;75.70
22212;DHT22;11275;52.488;13.462;2023-07-09T09:48:45;26.70;72.10
22212;DHT22;11275;52.488;13.462;2023-07-09T09:51:12;26.80;71.50
22212;DHT22;11275;52.488;13.462;2023-07-09T09:53:41;26.80;71.50
22212;DHT22;11275;52.488;13.462;2023-07-09T09:58:54;27.00;73.10
22212;DHT22;11275;52.488;13.462;2023-07-09T10:01:29;27.00;72.70
22212;DHT22;11275;52.488;13.462;2023-07-09T10:03:57;27.00;70.60
22212;DHT22;11275;52.488;13.462;2023-07-09T10:06:48;27.10;69.60
22212;DHT22;11275;52.488;13.462;2023-07-09T10:25:39;27.30;69.70
22212;DHT22;11275;52.488;13.462;2023-07-09T10:28:28;27.40;69.80
22212;DHT22;11275;52.488;13.462;2023-07-09T10:31:18;27.40;70.00
22212;DHT22;11275;52.488;13.462;2023-07-09T10:34:12;27.60;69.80
22212;DHT22;11275;52.488;13.462;2023-07-09T10:39:32;27.60;69.40
22212;DHT22;11275;52.488;13.462;2023-07-09T10:42:00;27.60;68.20
22212;DHT22;11275;52.488;13.462;2023-07-09T10:44:39;27.60;69.80
22212;DHT22;11275;52.488;13.462;2023-07-09T10:47:35;27.60;69.60
22212;DHT22;11275;52.488;13.462;2023-07-09T10:50:05;27.70;70.00
22212;DHT22;11275;52.488;13.462;2023-07-09T10:52:36;27.70;69.20
22212;DHT22;11275;52.488;13.462;2023-07-09T11:00:30;27.90;66.60
22212;DHT22;11275;52.488;13.462;2023-07-09T11:03:01;28.00;67.80
22212;DHT22;11275;52.488;13.462;2023-07-09T11:05:27;28.10;68.60
22212;DHT22;11275;52.488;13.462;2023-07-09T11:08:33;28.20;68.20
22212;DHT22;11275;52.488;13.462;2023-07-09T11:11:25;28.10;68.10
22212;DHT22;11275;52.488;13.462;2023-07-09T11:13:53;28.10;68.40
22212;DHT22;11275;52.488;13.462;2023-07-09T11:16:35;28.10;68.70
22212;DHT22;11275;52.488;13.462;2023-07-09T11:19:05;28.20;68.60
22212;DHT22;11275;52.488;13.462;2023-07-09T11:21:40;28.20;69.20
22212;DHT22;11275;52.488;13.462;2023-07-09T11:24:24;28.30;68.60
22212;DHT22;11275;52.488;13.462;2023-07-09T11:26:51;28.30;69.00
22212;DHT22;11275;52.488;13.462;2023-07-09T11:29:18;28.40;69.00
22212;DHT22;11275;52.488;13.462;2023-07-09T11:31:46;28.50;67.30
22212;DHT22;11275;52.488;13.462;2023-07-09T11:42:26;28.70;67.60
22212;DHT22;11275;52.488;13.462;2023-07-09T11:44:59;28.80;68.40
22212;DHT22;11275;52.488;13.462;2023-07-09T11:50:21;28.80;67.70
22212;DHT22;11275;52.488;13.462;2023-07-09T11:55:45;28.90;67.70
22212;DHT22;11275;52.488;13.462;2023-07-09T11:58:13;29.00;69.00
22212;DHT22;11275;52.488;13.462;2023-07-09T12:00:42;29.00;67.10
22212;DHT22;11275;52.488;13.462;2023-07-09T12:03:17;29.10;65.80
22212;DHT22;11275;52.488;13.462;2023-07-09T12:05:52;29.10;65.70
22212;DHT22;11275;52.488;13.462;2023-07-09T12:08:20;29.00;65.30
22212;DHT22;11275;52.488;13.462;2023-07-09T12:10:46;29.10;65.50
22212;DHT22;11275;52.488;13.462;2023-07-09T12:13:12;29.10;66.50
22212;DHT22;11275;52.488;13.462;2023-07-09T12:15:39;29.20;65.90
22212;DHT22;11275;52.488;13.462;2023-07-09T12:18:13;29.20;65.80
22212;DHT22;11275;52.488;13.462;2023-07-09T12:20:40;29.30;63.80
22212;DHT22;11275;52.488;13.462;2023-07-09T12:23:32;29.30;63.30
22212;DHT22;11275;52.488;13.462;2023-07-09T12:26:02;29.40;64.30
22212;DHT22;11275;52.488;13.462;2023-07-09T12:28:29;29.50;64.90
22212;DHT22;11275;52.488;13.462;2023-07-09T12:30:55;29.50;64.60
22212;DHT22;11275;52.488;13.462;2023-07-09T12:33:26;29.50;64.40
22212;DHT22;11275;52.488;13.462;2023-07-09T12:38:25;29.50;63.70
22212;DHT22;11275;52.488;13.462;2023-07-09T12:40:52;29.50;64.60
22212;DHT22;11275;52.488;13.462;2023-07-09T12:43:27;29.50;64.90
22212;DHT22;11275;52.488;13.462;2023-07-09T12:45:53;29.50;64.10
22212;DHT22;11275;52.488;13.462;2023-07-09T12:48:27;29.60;63.10
22212;DHT22;11275;52.488;13.462;2023-07-09T12:50:58;29.60;63.10
22212;DHT22;11275;52.488;13.462;2023-07-09T12:53:27;29.60;62.80
22212;DHT22;11275;52.488;13.462;2023-07-09T12:55:58;29.60;62.70
22212;DHT22;11275;52.488;13.462;2023-07-09T12:58:32;29.60;62.30
22212;DHT22;11275;52.488;13.462;2023-07-09T13:01:11;29.60;62.90
22212;DHT22;11275;52.488;13.462;2023-07-09T13:03:39;29.70;62.30
22212;DHT22;11275;52.488;13.462;2023-07-09T13:06:35;29.60;61.90
22212;DHT22;11275;52.488;13.462;2023-07-09T13:09:01;29.70;60.40
22212;DHT22;11275;52.488;13.462;2023-07-09T13:11:35;29.70;62.70
22212;DHT22;11275;52.488;13.462;2023-07-09T13:14:04;29.80;63.40
22212;DHT22;11275;52.488;13.462;2023-07-09T13:16:37;29.80;64.00
22212;DHT22;11275;52.488;13.462;2023-07-09T13:19:03;29.90;64.70
22212;DHT22;11275;52.488;13.462;2023-07-09T13:21:28;30.00;63.00
22212;DHT22;11275;52.488;13.462;2023-07-09T13:23:55;30.10;63.10
22212;DHT22;11275;52.488;13.462;2023-07-09T13:26:20;30.10;61.20
22212;DHT22;11275;52.488;13.462;2023-07-09T13:28:46;30.20;61.80
22212;DHT22;11275;52.488;13.462;2023-07-09T13:31:17;30.20;62.90
22212;DHT22;11275;52.488;13.462;2023-07-09T13:33:51;30.20;63.10
22212;DHT22;11275;52.488;13.462;2023-07-09T13:36:18;30.20;62.40
22212;DHT22;11275;52.488;13.462;2023-07-09T13:38:43;30.20;62.30
22212;DHT22;11275;52.488;13.462;2023-07-09T13:41:15;30.30;62.40
22212;DHT22;11275;52.488;13.462;2023-07-09T13:43:47;30.30;61.70
22212;DHT22;11275;52.488;13.462;2023-07-09T13:46:13;30.40;62.20
22212;DHT22;11275;52.488;13.462;2023-07-09T13:48:40;30.40;61.90
22212;DHT22;11275;52.488;13.462;2023-07-09T13:51:27;30.50;62.90
22212;DHT22;11275;52.488;13.462;2023-07-09T13:53:54;30.60;63.90
22212;DHT22;11275;52.488;13.462;2023-07-09T13:56:20;30.70;60.60
22212;DHT22;11275;52.488;13.462;2023-07-09T13:58:46;30.80;61.00
22212;DHT22;11275;52.488;13.462;2023-07-09T14:01:15;30.80;60.70
22212;DHT22;11275;52.488;13.462;2023-07-09T14:03:41;30.90;61.10
22212;DHT22;11275;52.488;13.462;2023-07-09T14:06:17;31.00;61.90
22212;DHT22;11275;52.488;13.462;2023-07-09T14:08:43;31.00;60.00
22212;DHT22;11275;52.488;13.462;2023-07-09T14:11:14;31.10;61.10
22212;DHT22;11275;52.488;13.462;2023-07-09T14:13:40;31.20;61.70
22212;DHT22;11275;52.488;13.462;2023-07-09T14:16:10;31.30;60.50
22212;DHT22;11275;52.488;13.462;2023-07-09T14:18:35;31.40;59.30
22212;DHT22;11275;52.488;13.462;2023-07-09T14:21:13;31.40;59.10
22212;DHT22;11275;52.488;13.462;2023-07-09T14:23:39;31.50;58.20
22212;DHT22;11275;52.488;13.462;2023-07-09T14:26:09;31.60;57.20
22212;DHT22;11275;52.488;13.462;2023-07-09T14:28:35;31.50;58.20
22212;DHT22;11275;52.488;13.462;2023-07-09T14:31:04;31.60;58.50
22212;DHT22;11275;52.488;13.462;2023-07-09T14:33:30;31.70;58.40
22212;DHT22;11275;52.488;13.462;2023-07-09T14:35:55;31.70;57.90
22212;DHT22;11275;52.488;13.462;2023-07-09T14:38:23;31.80;57.00
22212;DHT22;11275;52.488;13.462;2023-07-09T14:40:51;31.90;57.80
22212;DHT22;11275;52.488;13.462;2023-07-09T14:43:16;31.90;57.00
22212;DHT22;11275;52.488;13.462;2023-07-09T14:45:42;32.00;57.90
22212;DHT22;11275;52.488;13.462;2023-07-09T14:48:12;32.00;56.60
22212;DHT22;11275;52.488;13.462;2023-07-09T14:50:39;32.10;57.00
22212;DHT22;11275;52.488;13.462;2023-07-09T14:53:17;32.20;57.70
22212;DHT22;11275;52.488;13.462;2023-07-09T14:55:45;32.30;57.10
22212;DHT22;11275;52.488;13.462;2023-07-09T14:58:19;32.30;57.10
22212;DHT22;11275;52.488;13.462;2023-07-09T15:00:46;32.40;56.60
22212;DHT22;11275;52.488;13.462;2023-07-09T15:03:19;32.50;55.80
22212;DHT22;11275;52.488;13.462;2023-07-09T15:05:45;32.50;56.20
22212;DHT22;11275;52.488;13.462;2023-07-09T15:08:19;32.60;56.70
22212;DHT22;11275;52.488;13.462;2023-07-09T15:10:48;32.60;56.40
22212;DHT22;11275;52.488;13.462;2023-07-09T15:13:18;32.70;56.70
22212;DHT22;11275;52.488;13.462;2023-07-09T15:15:45;32.70;57.40
22212;DHT22;11275;52.488;13.462;2023-07-09T15:18:13;32.80;58.10
22212;DHT22;11275;52.488;13.462;2023-07-09T15:20:43;32.90;57.50
22212;DHT22;11275;52.488;13.462;2023-07-09T15:23:11;32.90;57.40
22212;DHT22;11275;52.488;13.462;2023-07-09T15:25:37;32.90;58.20
22212;DHT22;11275;52.488;13.462;2023-07-09T15:28:03;32.90;58.20
22212;DHT22;11275;52.488;13.462;2023-07-09T15:30:30;33.00;57.00
22212;DHT22;11275;52.488;13.462;2023-07-09T15:32:59;32.90;57.50
22212;DHT22;11275;52.488;13.462;2023-07-09T15:35:31;32.90;58.30
22212;DHT22;11275;52.488;13.462;2023-07-09T15:37:56;32.90;58.20
22212;DHT22;11275;52.488;13.462;2023-07-09T15:40:25;33.00;57.50
22212;DHT22;11275;52.488;13.462;2023-07-09T15:42:57;33.10;57.20
22212;DHT22;11275;52.488;13.462;2023-07-09T15:45:24;33.10;57.20
22212;DHT22;11275;52.488;13.462;2023-07-09T15:47:51;33.20;57.00
22212;DHT22;11275;52.488;13.462;2023-07-09T15:50:21;33.10;57.60
22212;DHT22;11275;52.488;13.462;2023-07-09T15:52:49;33.20;57.20
22212;DHT22;11275;52.488;13.462;2023-07-09T15:55:20;33.10;55.40
22212;DHT22;11275;52.488;13.462;2023-07-09T15:57:47;33.20;56.70
22212;DHT22;11275;52.488;13.462;2023-07-09T16:00:19;33.10;55.60
22212;DHT22;11275;52.488;13.462;2023-07-09T16:02:46;33.20;55.80
22212;DHT22;11275;52.488;13.462;2023-07-09T16:07:51;33.20;56.60
22212;DHT22;11275;52.488;13.462;2023-07-09T16:10:18;33.20;56.80
22212;DHT22;11275;52.488;13.462;2023-07-09T16:12:46;33.20;55.80
22212;DHT22;11275;52.488;13.462;2023-07-09T16:15:13;33.30;56.00
22212;DHT22;11275;52.488;13.462;2023-07-09T16:17:43;33.30;56.10
22212;DHT22;11275;52.488;13.462;2023-07-09T16:20:10;33.20;55.60
22212;DHT22;11275;52.488;13.462;2023-07-09T16:22:37;33.00;56.60